Погода Боравскена неделю

Варминско-Мазурское воеводство, Польша

18 - 24 июля
  • 18июля
    Сегодня
    +13°
    +24°
    Практически безоблачно
    ВремяПогодаТемператураВлажностьДавлениеВетер, м/сВероятность осадков
    02:00Облачно с прояснениями+17°C90 %751 мм1.7 м/с2 %
    05:00Ясно и безоблачно+16°C90 %751 мм2.0 м/с7 %
    08:00Ясно и безоблачно+20°C81 %752 мм1.9 м/с21 %
    11:00Практически безоблачно+23°C56 %752 мм4.0 м/с22 %
    14:00Практически безоблачно+23°C50 %752 мм4.8 м/с33 %
    17:00Практически безоблачно+23°C52 %752 мм5.2 м/с15 %
    20:00Небольшая облачность+21°C61 %752 мм4.0 м/с2 %
    23:00Практически безоблачно+15°C79 %752 мм3.4 м/с2 %
  • 19июля
    Пятница
    +11°
    +24°
    Практически безоблачно
    ВремяПогодаТемператураВлажностьДавлениеВетер, м/сВероятность осадков
    02:00Ясно и безоблачно+13°C90 %752 мм3.2 м/с2 %
    05:00Ясно и безоблачно+13°C95 %752 мм3.0 м/с2 %
    08:00Небольшая облачность+17°C72 %752 мм4.0 м/с2 %
    11:00Облачно с прояснениями+21°C54 %752 мм4.0 м/с2 %
    14:00Практически безоблачно+23°C47 %751 мм4.4 м/с2 %
    17:00Ясно и безоблачно+23°C47 %750 мм4.8 м/с2 %
    20:00Ясно и безоблачно+20°C56 %750 мм3.5 м/с2 %
    23:00Ясно и безоблачно+15°C77 %750 мм2.3 м/с2 %
  • 20июля
    Суббота
    +13°
    +25°
    Облачно с прояснениями
    ВремяПогодаТемператураВлажностьДавлениеВетер, м/сВероятность осадков
    02:00Ясно и безоблачно+13°C93 %749 мм1.8 м/с2 %
    05:00Ясно и безоблачно+12°C95 %749 мм1.9 м/с2 %
    08:00Практически безоблачно+17°C77 %748 мм2.6 м/с2 %
    11:00Небольшая облачность+21°C57 %748 мм2.4 м/с2 %
    14:00Облачно с прояснениями+24°C46 %747 мм2.6 м/с4 %
    17:00Небольшая облачность+25°C40 %746 мм3.0 м/с13 %
    20:00Практически безоблачно+22°C56 %746 мм2.0 м/с3 %
    23:00Ясно и безоблачно+17°C77 %746 мм2.2 м/с2 %
  • 21июля
    Воскресенье
    +14°
    +26°
    Ясно и безоблачно
    ВремяПогодаТемператураВлажностьДавлениеВетер, м/сВероятность осадков
    02:00Практически безоблачно+14°C93 %745 мм1.6 м/с2 %
    05:00Ясно и безоблачно+14°C95 %745 мм1.8 м/с2 %
    08:00Ясно и безоблачно+19°C70 %745 мм1.1 м/с2 %
    11:00Ясно и безоблачно+23°C48 %745 мм1.0 м/с2 %
    14:00Ясно и безоблачно+25°C40 %744 мм0.8 м/с2 %
    17:00Практически безоблачно+26°C38 %743 мм2.6 м/с2 %
    20:00Ясно и безоблачно+23°C54 %744 мм2.2 м/с2 %
    23:00Ясно и безоблачно+17°C63 %744 мм2.2 м/с2 %
  • 22июля
    Понедельник
    +14°
    +27°
    Практически безоблачно
    ВремяПогодаТемператураВлажностьДавлениеВетер, м/сВероятность осадков
    02:00Ясно и безоблачно+15°C75 %744 мм1.9 м/с2 %
    05:00Ясно и безоблачно+15°C81 %743 мм2.2 м/с2 %
    08:00Ясно и безоблачно+22°C56 %744 мм1.5 м/с2 %
    11:00Ясно и безоблачно+26°C40 %744 мм0.0 м/с3 %
    14:00Практически безоблачно+27°C33 %743 мм1.2 м/с11 %
    17:00Небольшая облачность+26°C32 %743 мм2.4 м/с18 %
    20:00Облачно с прояснениями+25°C49 %743 мм1.1 м/с18 %
    23:00Пасмурно, сплошная облачность+19°C47 %743 мм1.5 м/с25 %
Мы используем cookies
Соглашаюсь